createdAt,value
2023-01-04T00:00:01.337Z,7.50
2023-01-04T00:02:30.454Z,8.53
2023-01-04T00:05:00.069Z,7.87
2023-01-04T00:07:30.777Z,5.97
2023-01-04T00:10:03.029Z,4.97
2023-01-04T00:12:31.492Z,6.30
2023-01-04T00:15:01.877Z,8.90
2023-01-04T00:17:30.470Z,8.97
2023-01-04T00:19:59.206Z,8.27
2023-01-04T00:22:27.669Z,5.77
2023-01-04T00:24:56.449Z,5.23
2023-01-04T00:27:25.010Z,6.80
2023-01-04T00:29:54.572Z,7.53
2023-01-04T00:32:25.897Z,6.00
2023-01-04T00:34:54.326Z,7.57
2023-01-04T00:37:26.141Z,11.30
2023-01-04T00:39:55.898Z,9.93
2023-01-04T00:42:24.608Z,8.30
2023-01-04T00:44:53.053Z,11.50
2023-01-04T00:47:22.174Z,11.23
2023-01-04T00:49:52.152Z,9.33
2023-01-04T00:52:21.992Z,8.43
2023-01-04T00:54:52.153Z,14.17
2023-01-04T00:57:21.466Z,9.03
2023-01-04T00:59:49.948Z,7.40
2023-01-04T01:02:18.575Z,9.40
2023-01-04T01:04:47.253Z,7.40
2023-01-04T01:07:17.300Z,9.13
2023-01-04T01:09:45.687Z,7.13
2023-01-04T01:12:14.996Z,7.40
2023-01-04T01:14:44.054Z,7.80
2023-01-04T01:17:12.551Z,6.13
2023-01-04T01:19:41.005Z,7.17
2023-01-04T01:22:09.532Z,7.17
2023-01-04T01:24:43.057Z,7.90
2023-01-04T01:27:13.541Z,7.70
2023-01-04T01:29:42.857Z,11.63
2023-01-04T01:32:11.770Z,6.43
2023-01-04T01:34:41.645Z,6.33
2023-01-04T01:37:11.015Z,10.13
2023-01-04T01:39:39.817Z,7.07
2023-01-04T01:42:10.893Z,7.17
2023-01-04T01:45:11.524Z,7.37
2023-01-04T01:47:41.381Z,8.87
2023-01-04T01:50:12.499Z,6.07
2023-01-04T01:52:42.145Z,6.80
2023-01-04T01:55:13.695Z,5.43
2023-01-04T01:57:43.671Z,6.00
2023-01-04T02:00:13.564Z,7.30
2023-01-04T02:02:43.149Z,9.40
2023-01-04T02:05:11.797Z,7.73
2023-01-04T02:07:41.714Z,6.43
2023-01-04T02:10:11.997Z,5.97
2023-01-04T02:12:40.538Z,6.60
2023-01-04T02:15:11.606Z,6.90
2023-01-04T02:17:41.589Z,5.10
2023-01-04T02:20:27.917Z,5.03
2023-01-04T02:23:20.712Z,7.40
2023-01-04T02:26:08.049Z,7.90
2023-01-04T02:28:39.879Z,8.17
2023-01-04T02:31:22.477Z,5.27
2023-01-04T02:33:51.319Z,7.40
2023-01-04T02:36:21.619Z,5.67
2023-01-04T02:38:54.361Z,5.73
2023-01-04T02:41:24.062Z,5.20
2023-01-04T02:44:10.788Z,5.20
2023-01-04T02:46:42.280Z,6.13
2023-01-04T02:49:28.237Z,7.63
2023-01-04T02:51:56.761Z,6.37
2023-01-04T02:54:27.329Z,5.90
2023-01-04T02:57:05.165Z,6.17
2023-01-04T02:59:40.523Z,7.00
2023-01-04T03:02:31.171Z,6.83
2023-01-04T03:05:20.181Z,7.17
2023-01-04T03:07:51.066Z,6.47
2023-01-04T03:10:21.043Z,7.70
2023-01-04T03:12:51.716Z,9.40
2023-01-04T03:15:21.045Z,13.13
2023-01-04T03:17:51.591Z,7.83
2023-01-04T03:20:20.384Z,10.23
2023-01-04T03:23:08.466Z,8.27
2023-01-04T03:25:55.934Z,7.00
2023-01-04T03:28:42.056Z,8.97
2023-01-04T03:31:30.246Z,8.63
2023-01-04T03:34:17.738Z,7.37
2023-01-04T03:36:47.915Z,7.50
2023-01-04T03:39:36.103Z,7.87
2023-01-04T03:42:24.851Z,6.77
2023-01-04T03:45:12.446Z,6.73
2023-01-04T03:48:00.501Z,9.80
2023-01-04T03:50:30.733Z,7.17
2023-01-04T03:52:59.910Z,9.13
2023-01-04T03:55:29.355Z,6.57
2023-01-04T03:57:57.828Z,6.57
2023-01-04T04:00:26.418Z,8.67
2023-01-04T04:02:54.883Z,8.53
2023-01-04T04:05:42.232Z,8.90
2023-01-04T04:08:30.441Z,9.30
2023-01-04T04:11:19.834Z,8.53
2023-01-04T04:13:51.577Z,7.90
2023-01-04T04:16:20.161Z,6.60
2023-01-04T04:18:49.171Z,6.57
2023-01-04T04:21:17.547Z,8.43
2023-01-04T04:23:47.661Z,9.63
2023-01-04T04:26:16.101Z,7.97
2023-01-04T04:28:44.639Z,7.20
2023-01-04T04:31:13.373Z,6.80
2023-01-04T04:33:42.234Z,6.77
2023-01-04T04:36:10.973Z,7.90
2023-01-04T04:38:39.514Z,7.97
2023-01-04T04:41:27.359Z,6.73
2023-01-04T04:43:55.795Z,5.00
2023-01-04T04:46:24.346Z,7.40
2023-01-04T04:48:53.048Z,5.37
2023-01-04T04:51:21.635Z,5.87
2023-01-04T04:53:50.629Z,6.60
2023-01-04T04:56:20.447Z,4.57
2023-01-04T04:58:49.056Z,4.20
2023-01-04T05:01:17.860Z,8.77
2023-01-04T05:03:46.753Z,5.17
2023-01-04T05:06:15.333Z,5.57
2023-01-04T05:08:44.198Z,5.43
2023-01-04T05:11:13.107Z,4.50
2023-01-04T05:13:42.389Z,3.70
2023-01-04T05:16:11.113Z,3.37
2023-01-04T05:18:39.639Z,5.67
2023-01-04T05:21:08.132Z,7.23
2023-01-04T05:23:36.587Z,4.37
2023-01-04T05:26:05.117Z,4.63
2023-01-04T05:28:33.503Z,4.60
2023-01-04T05:31:02.447Z,6.13
2023-01-04T05:33:31.852Z,5.80
2023-01-04T05:36:00.842Z,6.37
2023-01-04T05:38:29.359Z,5.20
2023-01-04T05:40:58.113Z,5.00
2023-01-04T05:43:26.601Z,4.70
2023-01-04T05:45:55.718Z,7.80
2023-01-04T05:48:25.818Z,5.73
2023-01-04T05:50:54.813Z,8.07
2023-01-04T05:53:23.325Z,5.40
2023-01-04T05:55:51.772Z,5.43
2023-01-04T05:58:20.181Z,6.37
2023-01-04T06:00:48.631Z,6.53
2023-01-04T06:03:17.072Z,8.60
2023-01-04T06:05:50.775Z,4.50
2023-01-04T06:08:19.165Z,6.60
2023-01-04T06:10:47.544Z,7.10
2023-01-04T06:13:16.261Z,10.67
2023-01-04T06:15:46.601Z,9.50
2023-01-04T06:18:15.232Z,8.33
2023-01-04T06:20:44.708Z,8.77
2023-01-04T06:23:14.658Z,8.73
2023-01-04T06:25:43.371Z,5.70
2023-01-04T06:28:11.845Z,8.40
2023-01-04T06:30:40.369Z,12.63
2023-01-04T06:33:08.906Z,10.70
2023-01-04T06:35:37.393Z,7.00
2023-01-04T06:38:06.011Z,8.53
2023-01-04T06:40:35.960Z,14.60
2023-01-04T06:43:04.483Z,11.67
2023-01-04T06:45:32.875Z,14.13
2023-01-04T06:48:05.783Z,15.70
2023-01-04T06:50:37.315Z,15.43
2023-01-04T06:53:06.158Z,11.33
2023-01-04T06:55:36.043Z,12.60
2023-01-04T06:58:04.431Z,10.43
2023-01-04T07:00:32.923Z,12.13
2023-01-04T07:03:12.483Z,9.57
2023-01-04T07:05:43.602Z,17.97
2023-01-04T07:08:12.157Z,13.23
2023-01-04T07:10:42.083Z,18.77
2023-01-04T07:13:10.533Z,9.50
2023-01-04T07:15:40.867Z,14.20
2023-01-04T07:18:09.648Z,16.97
2023-01-04T07:20:38.150Z,16.90
2023-01-04T07:23:06.582Z,14.00
2023-01-04T07:25:34.943Z,13.50
2023-01-04T07:28:05.059Z,14.20
2023-01-04T07:30:33.769Z,15.10
2023-01-04T07:33:02.281Z,10.60
2023-01-04T07:35:30.695Z,8.80
2023-01-04T07:38:02.208Z,15.13
2023-01-04T07:40:30.618Z,14.07
2023-01-04T07:42:59.904Z,9.33
2023-01-04T07:45:29.892Z,13.27
2023-01-04T07:47:59.539Z,11.50
2023-01-04T07:50:32.168Z,13.53
2023-01-04T07:53:01.237Z,12.90
2023-01-04T07:55:30.001Z,18.10
2023-01-04T07:57:58.455Z,14.80
2023-01-04T08:00:26.884Z,19.10
2023-01-04T08:02:57.159Z,19.30
2023-01-04T08:05:26.252Z,17.53
2023-01-04T08:07:54.649Z,27.80
2023-01-04T08:10:23.120Z,18.50
2023-01-04T08:12:51.709Z,14.40
2023-01-04T08:15:20.202Z,20.33
2023-01-04T08:17:48.910Z,21.73
2023-01-04T08:20:19.297Z,20.30
2023-01-04T08:22:50.465Z,19.80
2023-01-04T08:25:19.373Z,26.57
2023-01-04T08:27:48.242Z,28.13
2023-01-04T08:30:17.127Z,26.50
2023-01-04T08:32:45.648Z,26.37
2023-01-04T08:35:14.196Z,26.43
2023-01-04T08:37:44.543Z,33.03
2023-01-04T08:40:13.263Z,34.43
2023-01-04T08:42:41.905Z,33.60
2023-01-04T08:45:10.871Z,32.60
2023-01-04T08:47:39.863Z,26.10
2023-01-04T08:50:10.963Z,33.40
2023-01-04T08:52:39.800Z,24.43
2023-01-04T08:55:13.221Z,32.93
2023-01-04T08:57:43.350Z,22.17
2023-01-04T09:00:12.517Z,24.50
2023-01-04T09:02:41.133Z,16.80
2023-01-04T09:05:10.292Z,27.43
2023-01-04T09:07:50.823Z,23.00
2023-01-04T09:10:20.870Z,19.77
2023-01-04T09:12:49.476Z,29.97
2023-01-04T09:15:18.634Z,30.10
2023-01-04T09:18:20.573Z,22.03
2023-01-04T09:20:35.793Z,20.83
2023-01-04T09:23:04.666Z,24.23
2023-01-04T09:25:34.732Z,25.40
2023-01-04T09:28:03.314Z,24.53
2023-01-04T09:30:32.689Z,29.90
2023-01-04T09:33:01.080Z,26.43
2023-01-04T09:35:29.536Z,29.40
2023-01-04T09:37:57.878Z,26.57
2023-01-04T09:40:32.489Z,32.63
2023-01-04T09:43:21.350Z,37.13
2023-01-04T09:45:51.480Z,32.43
2023-01-04T09:48:25.220Z,21.27
2023-01-04T09:50:55.547Z,34.87
2023-01-04T09:53:27.026Z,29.47
2023-01-04T09:55:56.753Z,30.47
2023-01-04T09:58:29.428Z,30.33
2023-01-04T10:01:05.443Z,28.67
2023-01-04T10:03:44.727Z,22.13
2023-01-04T10:06:16.605Z,24.20
2023-01-04T10:08:45.939Z,21.80
2023-01-04T10:11:22.846Z,10.80
2023-01-04T10:13:59.071Z,32.90
2023-01-04T10:17:01.738Z,20.27
2023-01-04T10:21:09.298Z,22.30
2023-01-04T10:22:18.263Z,19.90
2023-01-04T10:24:49.531Z,15.10
2023-01-04T10:27:23.337Z,19.67
2023-01-04T10:30:03.029Z,17.20
2023-01-04T10:32:35.758Z,18.73
2023-01-04T10:35:05.394Z,18.10
2023-01-04T10:37:35.339Z,13.83
2023-01-04T10:40:04.616Z,18.40
2023-01-04T10:42:36.154Z,10.47
2023-01-04T10:45:18.721Z,13.63
2023-01-04T10:47:50.742Z,16.00
2023-01-04T10:50:21.519Z,14.97
2023-01-04T10:53:01.376Z,15.13
2023-01-04T10:55:31.924Z,14.77
2023-01-04T10:58:00.907Z,10.50
2023-01-04T11:00:32.368Z,13.87
2023-01-04T11:03:08.292Z,12.93
2023-01-04T11:05:39.109Z,16.83
2023-01-04T11:08:07.966Z,6.80
2023-01-04T11:10:37.663Z,13.33
2023-01-04T11:13:06.100Z,12.43
2023-01-04T11:15:36.006Z,11.17
2023-01-04T11:18:05.604Z,15.03
2023-01-04T11:20:38.090Z,15.83
2023-01-04T11:23:08.285Z,13.00
2023-01-04T11:25:44.079Z,17.80
2023-01-04T11:28:17.188Z,16.53
2023-01-04T11:30:51.050Z,22.50
2023-01-04T11:33:20.199Z,21.47
2023-01-04T11:35:50.194Z,21.43
2023-01-04T11:38:19.059Z,20.43
2023-01-04T11:40:56.399Z,15.90
2023-01-04T11:43:24.994Z,15.90
2023-01-04T11:45:56.666Z,18.10
2023-01-04T11:48:38.435Z,22.27
2023-01-04T11:51:10.129Z,26.43
2023-01-04T11:53:42.228Z,19.47
2023-01-04T11:56:12.110Z,20.33
2023-01-04T11:58:40.516Z,19.70
2023-01-04T12:01:20.494Z,24.90
2023-01-04T12:03:49.108Z,16.57
2023-01-04T12:06:18.851Z,10.23
2023-01-04T12:08:48.157Z,19.73
2023-01-04T12:11:19.839Z,19.77
2023-01-04T12:13:48.181Z,19.07
2023-01-04T12:16:19.561Z,16.83
2023-01-04T12:18:47.970Z,14.10
2023-01-04T12:21:18.371Z,13.77
2023-01-04T12:23:47.026Z,20.77
2023-01-04T12:26:15.585Z,19.93
2023-01-04T12:28:44.488Z,18.10
2023-01-04T12:31:30.433Z,15.50
2023-01-04T12:33:59.335Z,13.50
2023-01-04T12:37:05.173Z,17.03
2023-01-04T12:39:44.027Z,11.57
2023-01-04T12:42:15.627Z,17.77
2023-01-04T12:45:02.543Z,13.20
2023-01-04T12:48:00.593Z,16.50
2023-01-04T12:50:31.182Z,14.37
2023-01-04T12:53:28.834Z,12.30
2023-01-04T12:55:58.185Z,18.93
2023-01-04T12:59:24.250Z,16.40
2023-01-04T13:01:38.121Z,15.37
2023-01-04T13:04:21.725Z,19.13
2023-01-04T13:06:51.626Z,20.10
2023-01-04T13:09:24.817Z,24.40
2023-01-04T13:12:06.279Z,18.20
2023-01-04T13:14:35.376Z,19.87
2023-01-04T13:17:08.318Z,18.90
2023-01-04T13:19:36.878Z,14.90
2023-01-04T13:22:06.654Z,19.30
2023-01-04T13:24:35.491Z,16.47
2023-01-04T13:27:07.104Z,17.47
2023-01-04T13:29:35.813Z,18.80
2023-01-04T13:32:05.760Z,16.83
2023-01-04T13:34:37.941Z,15.30
2023-01-04T13:37:23.344Z,17.63
2023-01-04T13:39:53.864Z,25.00
2023-01-04T13:42:25.207Z,12.57
2023-01-04T13:47:46.700Z,14.50
2023-01-04T13:50:24.083Z,20.77
2023-01-04T13:53:05.702Z,17.23
2023-01-04T13:55:36.002Z,15.77
2023-01-04T13:58:05.980Z,16.97
2023-01-04T14:03:42.432Z,13.30
2023-01-04T14:06:17.934Z,13.93
2023-01-04T14:08:57.796Z,18.77
2023-01-04T14:11:46.021Z,19.13
2023-01-04T14:14:19.905Z,13.13
2023-01-04T14:16:48.647Z,18.50
2023-01-04T14:19:31.350Z,20.53
2023-01-04T14:22:00.035Z,19.53
2023-01-04T14:27:33.049Z,23.17
2023-01-04T14:30:25.573Z,26.73
2023-01-04T14:32:57.815Z,19.83
2023-01-04T14:35:26.670Z,26.63
2023-01-04T14:37:56.096Z,23.77
2023-01-04T14:40:27.074Z,26.47
2023-01-04T14:42:55.641Z,25.27
2023-01-04T14:45:24.059Z,28.27
2023-01-04T14:47:59.418Z,23.67
2023-01-04T14:50:31.194Z,21.40
2023-01-04T14:52:59.622Z,22.03
2023-01-04T14:55:32.473Z,23.43
2023-01-04T14:58:03.980Z,28.30
2023-01-04T15:00:32.299Z,27.67
2023-01-04T15:03:00.915Z,33.73
2023-01-04T15:05:31.639Z,21.30
2023-01-04T15:08:02.943Z,26.20
2023-01-04T15:10:32.825Z,28.00
2023-01-04T15:13:01.778Z,29.80
2023-01-04T15:15:30.256Z,26.43
2023-01-04T15:17:59.036Z,28.90
2023-01-04T15:20:27.542Z,26.40
2023-01-04T15:22:55.962Z,29.33
2023-01-04T15:25:27.262Z,32.57
2023-01-04T15:27:57.213Z,27.33
2023-01-04T15:30:25.693Z,29.90
2023-01-04T15:32:54.150Z,24.83
2023-01-04T15:35:22.650Z,25.17
2023-01-04T15:37:52.352Z,29.63
2023-01-04T15:40:21.023Z,27.83
2023-01-04T15:43:02.042Z,26.80
2023-01-04T15:45:36.797Z,24.97
2023-01-04T15:48:11.778Z,27.80
2023-01-04T15:50:40.710Z,35.37
2023-01-04T15:53:09.379Z,28.60
2023-01-04T15:55:38.072Z,26.07
2023-01-04T15:58:06.737Z,31.10
2023-01-04T16:00:40.604Z,28.00
2023-01-04T16:03:15.408Z,27.90
2023-01-04T16:05:44.822Z,28.43
2023-01-04T16:08:13.456Z,20.93
2023-01-04T16:10:43.128Z,26.40
2023-01-04T16:13:11.501Z,29.20
2023-01-04T16:15:41.866Z,30.63
2023-01-04T16:18:10.472Z,35.97
2023-01-04T16:20:42.016Z,26.27
2023-01-04T16:23:10.534Z,30.27
2023-01-04T16:25:39.217Z,33.67
2023-01-04T16:28:09.047Z,25.13
2023-01-04T16:30:50.157Z,31.97
2023-01-04T16:33:19.776Z,33.57
2023-01-04T16:35:51.341Z,33.73
2023-01-04T16:38:27.044Z,27.77
2023-01-04T16:41:02.157Z,37.33
2023-01-04T16:43:30.610Z,29.23
2023-01-04T16:46:20.282Z,25.40
2023-01-04T16:48:50.945Z,38.00
2023-01-04T16:51:19.338Z,37.70
2023-01-04T16:53:47.870Z,34.73
2023-01-04T16:56:16.650Z,33.60
2023-01-04T16:58:45.341Z,36.00
2023-01-04T17:01:14.851Z,37.57
2023-01-04T17:03:43.445Z,38.13
2023-01-04T17:06:14.154Z,35.07
2023-01-04T17:08:52.541Z,38.83
2023-01-04T17:14:13.133Z,36.77
2023-01-04T17:16:42.445Z,42.93
2023-01-04T17:19:11.303Z,41.30
2023-01-04T17:21:41.153Z,44.80
2023-01-04T17:24:09.844Z,39.07
2023-01-04T17:26:38.388Z,37.90
2023-01-04T17:29:06.836Z,44.30
2023-01-04T17:31:35.752Z,34.67
2023-01-04T17:34:04.201Z,40.57
2023-01-04T17:36:32.768Z,44.10
2023-01-04T17:39:02.886Z,50.10
2023-01-04T17:41:31.786Z,45.47
2023-01-04T17:44:01.812Z,50.70
2023-01-04T17:46:31.819Z,56.10
2023-01-04T17:49:21.604Z,54.77
2023-01-04T17:51:50.663Z,53.13
2023-01-04T17:54:21.419Z,49.53
2023-01-04T17:56:50.170Z,51.10
2023-01-04T17:59:22.225Z,49.07
2023-01-04T18:01:50.963Z,50.63
2023-01-04T18:04:19.389Z,50.70
2023-01-04T18:06:47.845Z,41.47
2023-01-04T18:09:20.158Z,53.73
2023-01-04T18:11:52.776Z,48.43
2023-01-04T18:14:22.794Z,59.10
2023-01-04T18:16:58.495Z,50.70
2023-01-04T18:19:27.890Z,63.10
2023-01-04T18:21:56.386Z,53.53
2023-01-04T18:24:41.625Z,57.37
2023-01-04T18:27:22.195Z,57.13
2023-01-04T18:29:52.411Z,55.77
2023-01-04T18:32:21.080Z,48.97
2023-01-04T18:34:49.632Z,47.10
2023-01-04T18:37:18.932Z,46.73
2023-01-04T18:39:47.737Z,53.90
2023-01-04T18:42:17.632Z,51.47
2023-01-04T18:44:48.866Z,48.50
2023-01-04T18:47:18.137Z,48.07
2023-01-04T18:49:46.820Z,53.87
2023-01-04T18:52:18.542Z,51.00
2023-01-04T18:54:47.972Z,47.10
2023-01-04T18:57:17.987Z,41.63
2023-01-04T18:59:50.074Z,43.67
2023-01-04T19:02:19.327Z,49.27
2023-01-04T19:04:48.284Z,43.43
2023-01-04T19:07:16.955Z,50.77
2023-01-04T19:09:45.526Z,46.87
2023-01-04T19:12:14.541Z,39.13
2023-01-04T19:14:44.450Z,48.97
2023-01-04T19:17:13.115Z,49.40
2023-01-04T19:19:41.576Z,44.83
2023-01-04T19:22:12.825Z,42.30
2023-01-04T19:24:42.366Z,44.70
2023-01-04T19:27:12.645Z,46.70
2023-01-04T19:29:41.238Z,42.33
2023-01-04T19:32:11.337Z,42.20
2023-01-04T19:34:39.708Z,42.07
2023-01-04T19:37:08.146Z,38.57
2023-01-04T19:39:37.066Z,37.17
2023-01-04T19:42:05.835Z,35.83
2023-01-04T19:44:34.371Z,43.17
2023-01-04T19:47:03.147Z,34.53
2023-01-04T19:49:32.971Z,40.43
2023-01-04T19:52:01.348Z,37.83
2023-01-04T19:54:29.785Z,42.83
2023-01-04T19:56:58.139Z,37.87
2023-01-04T19:59:26.576Z,38.83
2023-01-04T20:01:55.635Z,45.73
2023-01-04T20:04:24.363Z,34.53
2023-01-04T20:06:54.074Z,27.03
2023-01-04T20:09:25.961Z,41.30
2023-01-04T20:11:54.726Z,38.70
2023-01-04T20:14:23.445Z,39.00
2023-01-04T20:16:51.868Z,34.20
2023-01-04T20:19:20.584Z,37.23
2023-01-04T20:21:49.116Z,33.73
2023-01-04T20:24:18.971Z,35.50
2023-01-04T20:26:47.891Z,36.70
2023-01-04T20:29:16.187Z,42.27
2023-01-04T20:31:45.895Z,37.27
2023-01-04T20:34:14.737Z,33.60
2023-01-04T20:36:43.379Z,33.97
2023-01-04T20:39:11.777Z,37.30
2023-01-04T20:42:02.729Z,37.83
2023-01-04T20:44:30.127Z,41.17
2023-01-04T20:46:58.716Z,35.93
2023-01-04T20:49:27.257Z,33.50
2023-01-04T20:51:55.713Z,34.10
2023-01-04T20:54:24.624Z,41.90
2023-01-04T20:56:54.583Z,42.73
2023-01-04T20:59:23.235Z,29.07
2023-01-04T21:01:51.726Z,42.97
2023-01-04T21:04:22.490Z,43.87
2023-01-04T21:06:50.943Z,42.27
2023-01-04T21:09:19.290Z,43.40
2023-01-04T21:11:47.738Z,34.07
2023-01-04T21:14:17.905Z,34.97
2023-01-04T21:16:46.498Z,40.70
2023-01-04T21:19:14.951Z,34.03
2023-01-04T21:21:43.584Z,43.30
2023-01-04T21:24:12.044Z,35.47
2023-01-04T21:26:40.703Z,37.60
2023-01-04T21:29:09.105Z,31.27
2023-01-04T21:31:39.361Z,45.73
2023-01-04T21:34:13.022Z,33.17
2023-01-04T21:36:42.981Z,35.43
2023-01-04T21:39:11.368Z,36.57
2023-01-04T21:41:47.497Z,32.40
2023-01-04T21:44:16.469Z,40.70
2023-01-04T21:46:46.514Z,31.23
2023-01-04T21:49:15.003Z,40.70
2023-01-04T21:51:43.654Z,31.37
2023-01-04T21:54:12.135Z,35.77
2023-01-04T21:56:40.829Z,38.57
2023-01-04T21:59:09.240Z,37.93
2023-01-04T22:01:37.790Z,41.00
2023-01-04T22:04:08.027Z,42.00
2023-01-04T22:06:38.343Z,42.70
2023-01-04T22:09:07.169Z,34.40
2023-01-04T22:11:35.833Z,33.40
2023-01-04T22:14:04.898Z,42.93
2023-01-04T22:16:33.676Z,42.10
2023-01-04T22:19:02.620Z,43.53
2023-01-04T22:21:32.478Z,34.33
2023-01-04T22:24:01.015Z,39.03
2023-01-04T22:26:30.270Z,35.17
2023-01-04T22:29:08.429Z,38.97
2023-01-04T22:31:36.892Z,42.20
2023-01-04T22:34:05.426Z,36.77
2023-01-04T22:36:38.341Z,31.37
2023-01-04T22:39:07.128Z,41.87
2023-01-04T22:41:35.560Z,40.83
2023-01-04T22:44:04.506Z,36.53
2023-01-04T22:46:32.948Z,42.53
2023-01-04T22:49:01.388Z,29.60
2023-01-04T22:51:30.148Z,33.77
2023-01-04T22:54:00.344Z,32.23
2023-01-04T22:56:29.770Z,32.23
2023-01-04T22:58:58.649Z,36.23
2023-01-04T23:01:28.295Z,38.07
2023-01-04T23:03:59.675Z,32.57
2023-01-04T23:06:29.005Z,40.80
2023-01-04T23:09:00.328Z,39.23
2023-01-04T23:11:30.647Z,32.43
2023-01-04T23:13:59.205Z,33.40
2023-01-04T23:16:32.434Z,31.17
2023-01-04T23:19:01.410Z,37.40
2023-01-04T23:21:29.938Z,31.73
2023-01-04T23:23:58.585Z,36.10
2023-01-04T23:26:27.841Z,33.60
2023-01-04T23:28:58.297Z,33.47
2023-01-04T23:31:27.417Z,31.37
2023-01-04T23:33:57.434Z,36.47
2023-01-04T23:36:26.543Z,27.63
2023-01-04T23:38:56.122Z,35.63
2023-01-04T23:41:44.546Z,28.17
2023-01-04T23:44:15.743Z,33.83
2023-01-04T23:46:44.535Z,36.87
2023-01-04T23:49:13.049Z,43.40
2023-01-04T23:51:42.861Z,30.17
2023-01-04T23:54:11.682Z,34.13
2023-01-04T23:56:40.370Z,27.57
2023-01-04T23:59:09.065Z,32.70
